createdAt,value
2023-02-01T00:01:26.400Z,14.40
2023-02-01T00:03:55.169Z,12.90
2023-02-01T00:06:23.594Z,13.98
2023-02-01T00:08:54.880Z,11.98
2023-02-01T00:11:25.464Z,11.65
2023-02-01T00:13:54.336Z,13.73
2023-02-01T00:16:25.205Z,14.83
2023-02-01T00:18:58.572Z,14.40
2023-02-01T00:21:27.110Z,15.32
2023-02-01T00:23:55.597Z,14.57
2023-02-01T00:26:32.372Z,12.02
2023-02-01T00:29:00.972Z,13.15
2023-02-01T00:31:29.925Z,10.13
2023-02-01T00:33:58.438Z,13.95
2023-02-01T00:36:27.091Z,17.08
2023-02-01T00:38:55.875Z,11.93
2023-02-01T00:41:25.989Z,13.57
2023-02-01T00:43:54.503Z,12.73
2023-02-01T00:46:23.655Z,14.02
2023-02-01T00:48:52.621Z,13.10
2023-02-01T00:51:23.342Z,14.73
2023-02-01T00:53:52.500Z,10.65
2023-02-01T00:56:21.590Z,6.47
2023-02-01T00:58:51.429Z,12.20
2023-02-01T01:03:51.785Z,12.93
2023-02-01T01:06:23.374Z,9.15
2023-02-01T01:08:53.369Z,15.18
2023-02-01T01:11:24.405Z,8.95
2023-02-01T01:13:56.085Z,9.23
2023-02-01T01:16:26.255Z,7.72
2023-02-01T01:18:55.861Z,16.52
2023-02-01T01:23:53.142Z,14.75
2023-02-01T01:26:23.716Z,17.08
2023-02-01T01:28:54.216Z,15.48
2023-02-01T01:31:23.404Z,14.85
2023-02-01T01:33:53.770Z,15.80
2023-02-01T01:36:23.069Z,16.60
2023-02-01T01:38:51.616Z,18.70
2023-02-01T01:41:23.464Z,10.50
2023-02-01T01:43:56.438Z,15.18
2023-02-01T01:46:28.112Z,17.85
2023-02-01T01:49:02.870Z,14.40
2023-02-01T01:51:37.670Z,16.50
2023-02-01T01:54:14.402Z,11.75
2023-02-01T01:56:43.965Z,17.77
2023-02-01T01:59:14.907Z,13.25
2023-02-01T02:01:43.505Z,17.05
2023-02-01T02:04:12.253Z,13.30
2023-02-01T02:06:46.582Z,12.55
2023-02-01T02:09:15.142Z,16.08
2023-02-01T02:11:43.564Z,13.45
2023-02-01T02:14:16.174Z,12.15
2023-02-01T02:17:09.189Z,17.38
2023-02-01T02:20:19.447Z,25.92
2023-02-01T02:23:14.733Z,21.02
2023-02-01T02:26:22.863Z,16.33
2023-02-01T02:29:33.747Z,15.50
2023-02-01T02:32:33.331Z,13.32
2023-02-01T02:35:08.571Z,14.55
2023-02-01T02:37:41.403Z,10.80
2023-02-01T02:40:18.832Z,15.18
2023-02-01T02:43:14.431Z,18.10
2023-02-01T02:46:04.459Z,6.97
2023-02-01T02:51:31.516Z,9.90
2023-02-01T02:54:24.219Z,7.43
2023-02-01T02:57:11.407Z,9.65
2023-02-01T02:59:59.504Z,8.32
2023-02-01T03:02:47.478Z,6.07
2023-02-01T03:07:59.347Z,8.05
2023-02-01T03:10:35.593Z,10.95
2023-02-01T03:13:06.967Z,9.32
2023-02-01T03:15:40.990Z,9.23
2023-02-01T03:18:15.334Z,8.07
2023-02-01T03:20:47.507Z,6.80
2023-02-01T03:23:19.810Z,6.75
2023-02-01T03:25:50.600Z,9.90
2023-02-01T03:28:22.586Z,10.10
2023-02-01T03:30:51.943Z,9.43
2023-02-01T03:33:23.759Z,10.95
2023-02-01T03:36:01.109Z,12.00
2023-02-01T03:38:35.189Z,13.30
2023-02-01T03:41:12.248Z,10.52
2023-02-01T03:43:50.183Z,7.70
2023-02-01T03:46:24.927Z,10.43
2023-02-01T03:48:56.458Z,11.80
2023-02-01T03:51:26.597Z,8.90
2023-02-01T03:53:58.030Z,8.40
2023-02-01T03:56:29.800Z,7.97
2023-02-01T03:59:01.373Z,7.90
2023-02-01T04:01:35.370Z,8.38
2023-02-01T04:04:04.032Z,8.70
2023-02-01T04:06:33.583Z,7.65
2023-02-01T04:09:06.395Z,9.65
2023-02-01T04:11:34.878Z,8.82
2023-02-01T04:14:05.542Z,9.00
2023-02-01T04:16:34.516Z,10.73
2023-02-01T04:19:03.556Z,11.32
2023-02-01T04:21:32.166Z,8.68
2023-02-01T04:24:00.639Z,8.45
2023-02-01T04:26:30.534Z,10.20
2023-02-01T04:28:59.045Z,11.30
2023-02-01T04:31:28.663Z,10.27
2023-02-01T04:33:58.615Z,10.70
2023-02-01T04:36:27.364Z,10.90
2023-02-01T04:38:55.754Z,10.07
2023-02-01T04:41:24.161Z,10.60
2023-02-01T04:43:54.434Z,11.40
2023-02-01T04:46:23.033Z,11.10
2023-02-01T04:48:51.392Z,12.30
2023-02-01T04:51:20.138Z,13.82
2023-02-01T04:53:48.573Z,13.57
2023-02-01T04:56:16.955Z,11.65
2023-02-01T04:58:45.369Z,11.75
2023-02-01T05:01:15.424Z,10.20
2023-02-01T05:03:44.021Z,11.25
2023-02-01T05:06:12.537Z,9.85
2023-02-01T05:08:41.016Z,11.98
2023-02-01T05:11:29.531Z,10.55
2023-02-01T05:13:56.995Z,10.13
2023-02-01T05:16:27.027Z,9.63
2023-02-01T05:18:55.698Z,9.35
2023-02-01T05:21:24.136Z,10.45
2023-02-01T05:24:10.365Z,10.73
2023-02-01T05:26:39.765Z,10.25
2023-02-01T05:29:09.286Z,11.65
2023-02-01T05:31:39.536Z,11.88
2023-02-01T05:34:08.305Z,11.00
2023-02-01T05:36:36.749Z,13.20
2023-02-01T05:39:05.941Z,12.87
2023-02-01T05:41:34.346Z,11.00
2023-02-01T05:44:02.870Z,11.98
2023-02-01T05:46:31.585Z,14.95
2023-02-01T05:49:01.786Z,17.05
2023-02-01T05:51:30.427Z,13.20
2023-02-01T05:53:58.993Z,13.48
2023-02-01T05:56:27.463Z,14.88
2023-02-01T05:58:56.152Z,14.35
2023-02-01T06:01:24.734Z,15.65
2023-02-01T06:03:53.337Z,22.30
2023-02-01T06:06:23.767Z,16.00
2023-02-01T06:08:52.357Z,22.13
2023-02-01T06:11:31.747Z,19.88
2023-02-01T06:14:01.171Z,20.70
2023-02-01T06:16:29.639Z,19.33
2023-02-01T06:18:58.055Z,20.60
2023-02-01T06:21:28.115Z,20.75
2023-02-01T06:23:58.650Z,27.02
2023-02-01T06:26:29.724Z,18.67
2023-02-01T06:28:58.426Z,21.20
2023-02-01T06:31:27.616Z,25.38
2023-02-01T06:33:56.251Z,16.10
2023-02-01T06:36:25.023Z,18.80
2023-02-01T06:38:55.026Z,17.92
2023-02-01T06:41:23.522Z,17.52
2023-02-01T06:43:51.901Z,14.55
2023-02-01T06:46:20.625Z,14.05
2023-02-01T06:48:50.401Z,13.50
2023-02-01T06:53:49.288Z,12.30
2023-02-01T06:56:19.308Z,11.60
2023-02-01T06:58:47.839Z,12.50
2023-02-01T07:01:16.939Z,13.27
2023-02-01T07:03:45.407Z,12.15
2023-02-01T07:06:13.818Z,11.48
2023-02-01T07:08:42.211Z,13.57
2023-02-01T07:11:12.438Z,11.80
2023-02-01T07:13:42.489Z,19.67
2023-02-01T07:16:14.240Z,57.40
2023-02-01T07:18:43.190Z,22.67
2023-02-01T07:21:12.257Z,14.57
2023-02-01T07:23:40.728Z,14.85
2023-02-01T07:26:12.050Z,15.23
2023-02-01T07:28:42.558Z,23.85
2023-02-01T07:31:12.664Z,23.33
2023-02-01T07:33:41.178Z,13.68
2023-02-01T07:36:13.431Z,16.45
2023-02-01T07:38:41.908Z,11.27
2023-02-01T07:41:11.016Z,14.57
2023-02-01T07:43:39.406Z,14.82
2023-02-01T07:46:09.711Z,14.02
2023-02-01T07:48:38.221Z,13.07
2023-02-01T07:51:08.430Z,11.32
2023-02-01T07:53:37.113Z,13.15
2023-02-01T07:56:06.802Z,13.68
2023-02-01T08:01:20.633Z,14.25
2023-02-01T08:03:51.949Z,14.55
2023-02-01T08:06:21.645Z,13.45
2023-02-01T08:08:50.554Z,12.38
2023-02-01T08:11:20.176Z,16.20
2023-02-01T08:13:48.912Z,13.25
2023-02-01T08:16:19.537Z,12.57
2023-02-01T08:18:48.155Z,14.55
2023-02-01T08:21:19.774Z,13.57
2023-02-01T08:23:48.528Z,13.73
2023-02-01T08:26:19.497Z,15.50
2023-02-01T08:28:50.713Z,12.82
2023-02-01T08:31:22.431Z,13.45
2023-02-01T08:33:52.884Z,14.55
2023-02-01T08:36:23.573Z,13.95
2023-02-01T08:38:52.507Z,14.98
2023-02-01T08:41:22.763Z,16.13
2023-02-01T08:43:51.644Z,12.43
2023-02-01T08:46:20.200Z,13.93
2023-02-01T08:48:49.041Z,11.57
2023-02-01T08:51:19.329Z,14.27
2023-02-01T08:53:50.342Z,14.80
2023-02-01T08:56:20.862Z,15.63
2023-02-01T08:58:49.316Z,12.95
2023-02-01T09:01:19.355Z,14.23
2023-02-01T09:03:48.058Z,13.73
2023-02-01T09:06:17.498Z,12.73
2023-02-01T09:08:46.047Z,14.95
2023-02-01T09:11:19.983Z,18.00
2023-02-01T09:13:49.531Z,15.45
2023-02-01T09:16:18.073Z,13.27
2023-02-01T09:18:56.034Z,15.13
2023-02-01T09:21:30.677Z,15.32
2023-02-01T09:23:59.189Z,16.70
2023-02-01T09:26:32.452Z,14.82
2023-02-01T09:29:02.779Z,13.82
2023-02-01T09:31:31.369Z,15.82
2023-02-01T09:33:59.841Z,15.13
2023-02-01T09:36:30.231Z,18.38
2023-02-01T09:38:59.941Z,16.50
2023-02-01T09:41:41.775Z,15.52
2023-02-01T09:44:20.498Z,16.20
2023-02-01T09:46:49.595Z,16.80
2023-02-01T09:49:22.244Z,14.23
2023-02-01T09:51:53.313Z,15.85
2023-02-01T09:54:25.102Z,14.55
2023-02-01T09:57:00.947Z,17.50
2023-02-01T09:59:35.757Z,16.77
2023-02-01T10:02:07.297Z,17.60
2023-02-01T10:04:35.701Z,15.50
2023-02-01T10:07:13.132Z,14.10
2023-02-01T10:09:53.055Z,15.43
2023-02-01T10:13:03.007Z,13.02
2023-02-01T10:15:42.620Z,15.70
2023-02-01T10:18:22.900Z,13.95
2023-02-01T10:20:59.782Z,16.90
2023-02-01T10:24:16.807Z,14.18
2023-02-01T10:26:48.057Z,13.35
2023-02-01T10:29:21.079Z,15.10
2023-02-01T10:31:49.633Z,14.50
2023-02-01T10:34:22.045Z,15.43
2023-02-01T10:36:57.835Z,12.27
2023-02-01T10:39:26.828Z,17.20
2023-02-01T10:41:57.282Z,16.40
2023-02-01T10:44:32.419Z,17.55
2023-02-01T10:47:00.890Z,16.80
2023-02-01T10:49:35.671Z,16.73
2023-02-01T10:52:13.598Z,17.70
2023-02-01T10:54:43.132Z,18.42
2023-02-01T10:57:12.894Z,17.20
2023-02-01T11:02:22.585Z,16.38
2023-02-01T11:04:51.605Z,16.95
2023-02-01T11:07:26.396Z,18.08
2023-02-01T11:09:57.540Z,15.75
2023-02-01T11:12:32.091Z,17.33
2023-02-01T11:15:14.801Z,18.95
2023-02-01T11:17:45.851Z,14.93
2023-02-01T11:20:19.542Z,16.15
2023-02-01T11:22:56.137Z,17.08
2023-02-01T11:25:25.955Z,19.65
2023-02-01T11:27:57.886Z,20.20
2023-02-01T11:30:36.277Z,18.40
2023-02-01T11:33:07.284Z,17.38
2023-02-01T11:35:41.057Z,18.60
2023-02-01T11:38:21.262Z,16.73
2023-02-01T11:40:50.825Z,19.35
2023-02-01T11:43:25.945Z,18.67
2023-02-01T11:46:00.367Z,21.40
2023-02-01T11:48:30.556Z,22.02
2023-02-01T11:51:24.212Z,22.58
2023-02-01T11:54:12.808Z,18.92
2023-02-01T11:56:52.308Z,23.60
2023-02-01T11:59:43.125Z,21.13
2023-02-01T12:02:32.690Z,21.35
2023-02-01T12:05:13.379Z,39.05
2023-02-01T12:07:59.043Z,54.72
2023-02-01T12:10:41.134Z,45.38
2023-02-01T12:13:19.796Z,45.78
2023-02-01T12:15:59.427Z,53.92
2023-02-01T12:19:03.314Z,42.25
2023-02-01T12:21:54.385Z,29.98
2023-02-01T12:24:52.084Z,31.30
2023-02-01T12:27:52.548Z,25.98
2023-02-01T12:30:47.635Z,34.28
2023-02-01T12:33:24.612Z,34.60
2023-02-01T12:36:09.899Z,34.38
2023-02-01T12:38:48.459Z,35.85
2023-02-01T12:41:35.847Z,28.55
2023-02-01T12:44:07.937Z,31.17
2023-02-01T12:46:42.303Z,28.90
2023-02-01T12:49:16.623Z,24.92
2023-02-01T12:51:50.719Z,22.13
2023-02-01T12:54:30.014Z,26.15
2023-02-01T12:57:03.426Z,27.88
2023-02-01T12:59:38.441Z,27.75
2023-02-01T13:02:16.355Z,29.52
2023-02-01T13:05:00.342Z,25.33
2023-02-01T13:07:37.092Z,26.70
2023-02-01T13:10:14.565Z,21.83
2023-02-01T13:12:49.694Z,24.92
2023-02-01T13:15:23.200Z,29.35
2023-02-01T13:17:54.627Z,27.50
2023-02-01T13:20:31.069Z,26.42
2023-02-01T13:23:05.137Z,29.60
2023-02-01T13:25:40.513Z,27.73
2023-02-01T13:28:14.660Z,27.60
2023-02-01T13:30:58.400Z,27.30
2023-02-01T13:33:52.495Z,29.23
2023-02-01T13:36:55.418Z,23.02
2023-02-01T13:40:08.209Z,24.80
2023-02-01T13:42:44.880Z,22.90
2023-02-01T13:45:19.233Z,24.60
2023-02-01T13:47:53.962Z,23.73
2023-02-01T13:50:27.394Z,25.13
2023-02-01T13:52:58.284Z,26.20
2023-02-01T13:55:39.652Z,24.67
2023-02-01T13:58:22.347Z,23.00
2023-02-01T14:00:52.693Z,41.97
2023-02-01T14:03:23.950Z,29.13
2023-02-01T14:06:17.776Z,26.80
2023-02-01T14:09:07.956Z,53.72
2023-02-01T14:11:43.746Z,54.10
2023-02-01T14:14:45.892Z,116.10
2023-02-01T14:17:39.131Z,55.15
2023-02-01T14:20:49.986Z,47.97
2023-02-01T14:23:32.157Z,43.38
2023-02-01T14:26:11.437Z,39.97
2023-02-01T14:28:55.708Z,42.35
2023-02-01T14:31:57.125Z,40.97
2023-02-01T14:34:33.625Z,36.53
2023-02-01T14:37:05.257Z,35.42
2023-02-01T14:39:41.845Z,33.97
2023-02-01T14:42:26.543Z,32.53
2023-02-01T14:44:58.927Z,35.78
2023-02-01T14:47:34.227Z,34.00
2023-02-01T14:50:21.309Z,28.80
2023-02-01T14:52:54.349Z,28.13
2023-02-01T14:55:29.619Z,25.15
2023-02-01T14:58:01.766Z,29.48
2023-02-01T15:00:34.341Z,27.83
2023-02-01T15:03:26.116Z,24.45
2023-02-01T15:05:59.500Z,19.33
2023-02-01T15:08:29.806Z,17.35
2023-02-01T15:11:02.660Z,17.15
2023-02-01T15:13:31.745Z,16.98
2023-02-01T15:16:06.785Z,16.27
2023-02-01T15:18:35.441Z,13.80
2023-02-01T15:21:27.408Z,16.83
2023-02-01T15:24:12.946Z,14.32
2023-02-01T15:26:41.964Z,18.95
2023-02-01T15:29:14.365Z,15.88
2023-02-01T15:31:45.985Z,14.15
2023-02-01T15:34:15.140Z,13.50
2023-02-01T15:37:00.339Z,14.50
2023-02-01T15:39:30.598Z,15.60
2023-02-01T15:42:03.005Z,46.60
2023-02-01T15:44:41.379Z,28.00
2023-02-01T15:47:18.901Z,12.57
2023-02-01T15:49:50.161Z,16.00
2023-02-01T15:52:29.534Z,66.97
2023-02-01T15:55:01.788Z,52.38
2023-02-01T15:57:34.883Z,16.77
2023-02-01T16:00:06.712Z,16.88
2023-02-01T16:02:54.443Z,11.73
2023-02-01T16:05:34.465Z,24.13
2023-02-01T16:08:06.156Z,23.25
2023-02-01T16:10:41.668Z,26.80
2023-02-01T16:13:10.383Z,12.80
2023-02-01T16:15:39.199Z,12.15
2023-02-01T16:18:10.644Z,10.97
2023-02-01T16:20:40.091Z,9.48
2023-02-01T16:23:09.560Z,10.15
2023-02-01T16:25:38.742Z,11.43
2023-02-01T16:28:07.534Z,9.65
2023-02-01T16:30:36.352Z,9.15
2023-02-01T16:33:06.357Z,9.87
2023-02-01T16:35:37.905Z,13.98
2023-02-01T16:38:09.799Z,10.63
2023-02-01T16:40:38.275Z,12.85
2023-02-01T16:43:14.310Z,10.70
2023-02-01T16:45:44.835Z,16.10
2023-02-01T16:48:21.446Z,12.35
2023-02-01T16:50:54.006Z,13.88
2023-02-01T16:53:23.107Z,10.23
2023-02-01T16:55:53.275Z,20.30
2023-02-01T16:58:23.210Z,12.52
2023-02-01T17:03:21.557Z,12.40
2023-02-01T17:05:53.680Z,11.48
2023-02-01T17:08:35.107Z,12.32
2023-02-01T17:11:04.041Z,11.05
2023-02-01T17:13:32.783Z,11.32
2023-02-01T17:16:04.735Z,10.93
2023-02-01T17:18:35.982Z,10.02
2023-02-01T17:21:07.775Z,13.45
2023-02-01T17:23:36.534Z,10.80
2023-02-01T17:26:05.151Z,9.98
2023-02-01T17:28:33.596Z,12.68
2023-02-01T17:31:02.983Z,11.57
2023-02-01T17:33:35.680Z,15.27
2023-02-01T17:36:07.169Z,13.55
2023-02-01T17:38:36.037Z,19.63
2023-02-01T17:41:04.584Z,10.53
2023-02-01T17:43:33.142Z,11.65
2023-02-01T17:46:06.106Z,13.05
2023-02-01T17:48:34.836Z,13.23
2023-02-01T17:51:03.555Z,14.48
2023-02-01T17:53:34.214Z,9.63
2023-02-01T17:56:02.728Z,9.93
2023-02-01T17:58:33.598Z,10.40
2023-02-01T18:01:02.263Z,9.60
2023-02-01T18:03:33.113Z,9.60
2023-02-01T18:06:02.033Z,11.35
2023-02-01T18:08:33.981Z,12.13
2023-02-01T18:11:03.718Z,8.23
2023-02-01T18:13:33.339Z,11.07
2023-02-01T18:18:33.481Z,10.85
2023-02-01T18:21:02.337Z,14.23
2023-02-01T18:23:32.369Z,8.80
2023-02-01T18:26:01.332Z,13.48
2023-02-01T18:28:29.832Z,11.47
2023-02-01T18:30:58.578Z,9.60
2023-02-01T18:33:27.275Z,9.33
2023-02-01T18:35:55.761Z,10.48
2023-02-01T18:38:24.596Z,7.82
2023-02-01T18:40:58.289Z,6.27
2023-02-01T18:43:26.787Z,10.48
2023-02-01T18:45:55.731Z,10.65
2023-02-01T18:48:25.337Z,8.70
2023-02-01T18:50:57.701Z,7.18
2023-02-01T18:53:27.634Z,12.77
2023-02-01T18:55:58.249Z,7.15
2023-02-01T18:58:27.925Z,5.53
2023-02-01T19:00:58.993Z,8.30
2023-02-01T19:03:27.413Z,7.88
2023-02-01T19:05:59.353Z,9.25
2023-02-01T19:08:28.090Z,7.45
2023-02-01T19:10:58.474Z,10.60
2023-02-01T19:13:31.552Z,8.07
2023-02-01T19:16:00.482Z,8.20
2023-02-01T19:18:29.125Z,6.18
2023-02-01T19:21:05.102Z,6.55
2023-02-01T19:23:33.810Z,6.95
2023-02-01T19:26:03.889Z,5.88
2023-02-01T19:28:33.248Z,7.93
2023-02-01T19:31:05.970Z,7.40
2023-02-01T19:33:34.695Z,6.82
2023-02-01T19:36:06.134Z,6.05
2023-02-01T19:38:36.279Z,11.45
2023-02-01T19:41:06.604Z,6.45
2023-02-01T19:43:35.571Z,6.47
2023-02-01T19:46:04.395Z,6.47
2023-02-01T19:48:34.401Z,9.63
2023-02-01T19:51:04.315Z,8.23
2023-02-01T19:53:32.898Z,7.13
2023-02-01T19:56:02.315Z,11.00
2023-02-01T19:58:33.344Z,9.02
2023-02-01T20:01:02.706Z,7.32
2023-02-01T20:03:31.960Z,10.27
2023-02-01T20:06:03.793Z,7.87
2023-02-01T20:08:34.751Z,10.80
2023-02-01T20:11:07.719Z,14.52
2023-02-01T20:13:38.817Z,8.15
2023-02-01T20:16:08.810Z,11.48
2023-02-01T20:18:38.968Z,9.13
2023-02-01T20:21:08.765Z,8.52
2023-02-01T20:23:38.469Z,9.77
2023-02-01T20:26:11.767Z,10.15
2023-02-01T20:28:42.828Z,6.43
2023-02-01T20:31:12.192Z,10.75
2023-02-01T20:33:40.740Z,6.05
2023-02-01T20:36:10.249Z,7.97
2023-02-01T20:38:39.041Z,5.63
2023-02-01T20:41:10.439Z,9.70
2023-02-01T20:43:48.632Z,7.57
2023-02-01T20:46:20.425Z,10.60
2023-02-01T20:48:51.911Z,6.28
2023-02-01T20:51:22.204Z,9.48
2023-02-01T20:53:54.343Z,7.57
2023-02-01T20:56:24.720Z,7.43
2023-02-01T20:59:03.790Z,7.05
2023-02-01T21:01:35.620Z,8.30
2023-02-01T21:04:04.420Z,7.65
2023-02-01T21:06:33.145Z,6.00
2023-02-01T21:09:03.581Z,7.50
2023-02-01T21:11:32.399Z,6.40
2023-02-01T21:14:01.672Z,8.32
2023-02-01T21:16:30.463Z,9.38
2023-02-01T21:19:00.853Z,7.60
2023-02-01T21:21:33.232Z,6.45
2023-02-01T21:24:02.028Z,6.97
2023-02-01T21:26:41.642Z,5.78
2023-02-01T21:31:40.943Z,7.60
2023-02-01T21:34:12.316Z,6.85
2023-02-01T21:36:41.972Z,7.45
2023-02-01T21:39:14.507Z,11.65
2023-02-01T21:42:00.701Z,6.03
2023-02-01T21:44:29.631Z,8.68
2023-02-01T21:46:58.488Z,7.83
2023-02-01T21:49:31.838Z,8.88
2023-02-01T21:52:02.566Z,9.45
2023-02-01T21:54:31.306Z,7.55
2023-02-01T21:56:59.837Z,7.78
2023-02-01T21:59:28.768Z,7.43
2023-02-01T22:01:57.403Z,8.55
2023-02-01T22:04:25.965Z,7.05
2023-02-01T22:06:59.287Z,6.93
2023-02-01T22:09:28.470Z,6.40
2023-02-01T22:11:58.089Z,4.78
2023-02-01T22:14:28.798Z,5.50
2023-02-01T22:16:57.959Z,5.75
2023-02-01T22:19:28.967Z,8.00
2023-02-01T22:22:00.208Z,6.57
2023-02-01T22:24:29.439Z,8.48
2023-02-01T22:27:13.360Z,6.68
2023-02-01T22:29:43.004Z,6.53
2023-02-01T22:32:13.588Z,5.75
2023-02-01T22:34:42.362Z,5.57
2023-02-01T22:37:13.377Z,6.30
2023-02-01T22:39:44.680Z,5.32
2023-02-01T22:42:14.083Z,6.05
2023-02-01T22:44:45.171Z,6.68
2023-02-01T22:47:14.645Z,6.28
2023-02-01T22:49:44.234Z,8.07
2023-02-01T22:52:14.317Z,5.07
2023-02-01T22:54:43.702Z,7.57
2023-02-01T22:57:12.820Z,4.97
2023-02-01T22:59:41.650Z,4.88
2023-02-01T23:02:10.580Z,5.68
2023-02-01T23:04:39.145Z,5.50
2023-02-01T23:07:07.881Z,5.45
2023-02-01T23:09:38.048Z,5.65
2023-02-01T23:12:07.025Z,7.35
2023-02-01T23:14:55.668Z,4.65
2023-02-01T23:17:25.518Z,5.13
2023-02-01T23:22:26.061Z,6.60
2023-02-01T23:24:56.259Z,6.20
2023-02-01T23:27:27.245Z,7.07
2023-02-01T23:29:56.205Z,6.97
2023-02-01T23:32:24.840Z,7.70
2023-02-01T23:34:53.600Z,6.70
2023-02-01T23:37:22.262Z,5.65
2023-02-01T23:39:52.194Z,6.07
2023-02-01T23:42:22.929Z,8.50
2023-02-01T23:44:50.727Z,7.65
2023-02-01T23:47:19.522Z,12.45
2023-02-01T23:49:48.392Z,8.47
2023-02-01T23:52:17.092Z,10.10
2023-02-01T23:54:46.199Z,10.10
2023-02-01T23:57:15.438Z,13.30
2023-02-01T23:59:45.476Z,12.23
